createdAt,value
2022-08-26T00:00:59.674Z,954.3
2022-08-26T00:03:58.523Z,954.21
2022-08-26T00:06:59.041Z,954.33
2022-08-26T00:09:58.660Z,954.27
2022-08-26T00:12:58.882Z,954.27
2022-08-26T00:15:58.669Z,954.23
2022-08-26T00:18:58.604Z,954.18
2022-08-26T00:21:58.883Z,954.21
2022-08-26T00:24:58.788Z,954.17
2022-08-26T00:27:58.777Z,954.18
2022-08-26T00:30:59.119Z,954.17
2022-08-26T00:33:59.381Z,954.17
2022-08-26T00:36:58.162Z,954.21
2022-08-26T00:40:00.784Z,954.2
2022-08-26T00:42:58.810Z,954.23
2022-08-26T00:45:58.999Z,954.27
2022-08-26T00:48:59.152Z,954.17
2022-08-26T00:52:00.004Z,954.13
2022-08-26T00:54:58.997Z,954.14
2022-08-26T00:57:59.010Z,954.2
2022-08-26T01:00:59.333Z,954.23
2022-08-26T01:03:58.846Z,954.26
2022-08-26T01:06:59.204Z,954.26
2022-08-26T01:09:59.066Z,954.19
2022-08-26T01:12:59.022Z,954.26
2022-08-26T01:15:59.771Z,954.23
2022-08-26T01:18:58.796Z,954.16
2022-08-26T01:21:59.449Z,954.2
2022-08-26T01:24:59.266Z,954.22
2022-08-26T01:27:59.026Z,954.19
2022-08-26T01:30:59.504Z,954.15
2022-08-26T01:33:59.348Z,954.1
2022-08-26T01:36:59.631Z,954.09
2022-08-26T01:39:58.676Z,954.06
2022-08-26T01:42:58.501Z,954.09
2022-08-26T01:45:59.722Z,954.09
2022-08-26T01:48:58.388Z,954.09
2022-08-26T01:51:58.318Z,954.09
2022-08-26T01:54:59.154Z,954.06
2022-08-26T01:57:58.872Z,954.02
2022-08-26T02:00:59.207Z,954.12
2022-08-26T02:03:59.206Z,954.18
2022-08-26T02:06:59.326Z,954.18
2022-08-26T02:09:59.329Z,954.16
2022-08-26T02:12:58.354Z,954.18
2022-08-26T02:15:59.401Z,954.12
2022-08-26T02:18:59.428Z,954.16
2022-08-26T02:21:58.772Z,954.15
2022-08-26T02:24:59.038Z,954.1
2022-08-26T02:27:59.340Z,954.18
2022-08-26T02:30:59.065Z,954.13
2022-08-26T02:33:58.887Z,954.08
2022-08-26T02:36:59.176Z,954.13
2022-08-26T02:39:58.771Z,954.03
2022-08-26T02:42:59.181Z,954.05
2022-08-26T02:46:01.619Z,953.97
2022-08-26T02:48:58.747Z,954.02
2022-08-26T02:51:58.691Z,954.04
2022-08-26T02:54:58.581Z,953.98
2022-08-26T02:57:58.463Z,954.04
2022-08-26T03:00:59.645Z,954.03
2022-08-26T03:03:58.362Z,954.05
2022-08-26T03:06:58.273Z,953.93
2022-08-26T03:09:59.426Z,953.88
2022-08-26T03:12:58.260Z,953.87
2022-08-26T03:15:59.261Z,953.87
2022-08-26T03:18:59.005Z,953.87
2022-08-26T03:21:59.143Z,953.78
2022-08-26T03:24:59.066Z,953.81
2022-08-26T03:27:59.466Z,953.89
2022-08-26T03:30:59.285Z,953.9
2022-08-26T03:33:59.605Z,953.89
2022-08-26T03:36:59.407Z,953.85
2022-08-26T03:39:59.797Z,953.91
2022-08-26T03:42:59.486Z,953.81
2022-08-26T03:45:59.190Z,953.85
2022-08-26T03:48:58.778Z,953.89
2022-08-26T03:51:58.631Z,953.82
2022-08-26T03:54:58.626Z,953.72
2022-08-26T03:57:58.590Z,953.75
2022-08-26T04:00:59.512Z,953.85
2022-08-26T04:04:00.300Z,953.84
2022-08-26T04:06:58.569Z,953.81
2022-08-26T04:09:58.711Z,953.84
2022-08-26T04:12:59.201Z,953.86
2022-08-26T04:15:58.946Z,953.82
2022-08-26T04:18:58.319Z,953.89
2022-08-26T04:21:59.275Z,953.84
2022-08-26T04:24:58.597Z,953.81
2022-08-26T04:27:58.542Z,953.81
2022-08-26T04:30:59.322Z,953.81
2022-08-26T04:33:58.663Z,953.78
2022-08-26T04:36:58.347Z,953.79
2022-08-26T04:39:58.956Z,953.78
2022-08-26T04:42:58.750Z,953.77
2022-08-26T04:46:00.004Z,953.69
2022-08-26T04:48:59.262Z,953.79
2022-08-26T04:51:58.724Z,953.74
2022-08-26T04:54:58.838Z,953.74
2022-08-26T04:57:59.896Z,953.79
2022-08-26T05:00:58.862Z,953.84
2022-08-26T05:03:58.772Z,953.81
2022-08-26T05:07:02.316Z,953.82
2022-08-26T05:09:59.578Z,953.84
2022-08-26T05:12:59.528Z,953.89
2022-08-26T05:16:01.247Z,954.02
2022-08-26T05:18:58.570Z,953.93
2022-08-26T05:21:59.474Z,953.93
2022-08-26T05:24:59.332Z,953.94
2022-08-26T05:27:59.387Z,954.03
2022-08-26T05:30:59.427Z,953.97
2022-08-26T05:33:58.707Z,953.94
2022-08-26T05:36:59.114Z,953.97
2022-08-26T05:39:59.357Z,954.01
2022-08-26T05:42:59.782Z,953.95
2022-08-26T05:46:00.223Z,953.98
2022-08-26T05:48:59.134Z,954.07
2022-08-26T05:52:00.071Z,954.01
2022-08-26T05:54:59.192Z,954.09
2022-08-26T05:57:59.442Z,954.09
2022-08-26T06:01:00.055Z,954.09
2022-08-26T06:04:00.729Z,954.1
2022-08-26T06:06:59.358Z,954.06
2022-08-26T06:10:28.181Z,954.19
2022-08-26T06:12:59.101Z,954.16
2022-08-26T06:15:59.649Z,954.14
2022-08-26T06:18:58.768Z,954.1
2022-08-26T06:21:59.594Z,954.14
2022-08-26T06:24:59.544Z,954.19
2022-08-26T06:27:59.002Z,954.23
2022-08-26T06:30:58.772Z,954.19
2022-08-26T06:33:58.651Z,954.16
2022-08-26T06:36:58.715Z,954.17
2022-08-26T06:39:59.168Z,954.14
2022-08-26T06:42:58.785Z,954.14
2022-08-26T06:45:59.943Z,954.2
2022-08-26T06:48:58.393Z,954.2
2022-08-26T06:51:59.101Z,954.23
2022-08-26T06:54:59.153Z,954.29
2022-08-26T06:57:58.704Z,954.27
2022-08-26T07:01:03.683Z,954.33
2022-08-26T07:03:58.903Z,954.27
2022-08-26T07:06:58.243Z,954.26
2022-08-26T07:09:59.251Z,954.33
2022-08-26T07:12:58.848Z,954.38
2022-08-26T07:16:02.870Z,954.38
2022-08-26T07:18:59.062Z,954.29
2022-08-26T07:21:58.859Z,954.36
2022-08-26T07:24:58.756Z,954.35
2022-08-26T07:27:58.631Z,954.32
2022-08-26T07:30:58.740Z,954.36
2022-08-26T07:33:58.612Z,954.39
2022-08-26T07:36:58.965Z,954.42
2022-08-26T07:40:04.894Z,954.38
2022-08-26T07:42:58.443Z,954.39
2022-08-26T07:45:58.648Z,954.42
2022-08-26T07:48:59.106Z,954.48
2022-08-26T07:51:59.210Z,954.36
2022-08-26T07:54:58.459Z,954.39
2022-08-26T07:57:58.754Z,954.46
2022-08-26T08:00:59.658Z,954.45
2022-08-26T08:03:59.298Z,954.36
2022-08-26T08:06:59.151Z,954.31
2022-08-26T08:09:59.078Z,954.36
2022-08-26T08:12:59.218Z,954.31
2022-08-26T08:15:59.099Z,954.33
2022-08-26T08:18:59.465Z,954.33
2022-08-26T08:21:58.981Z,954.3
2022-08-26T08:24:58.973Z,954.35
2022-08-26T08:27:58.964Z,954.24
2022-08-26T08:30:59.326Z,954.27
2022-08-26T08:33:58.929Z,954.39
2022-08-26T08:36:59.656Z,954.35
2022-08-26T08:39:59.431Z,954.35
2022-08-26T08:42:58.783Z,954.27
2022-08-26T08:45:58.677Z,954.34
2022-08-26T08:48:58.903Z,954.3
2022-08-26T08:51:59.293Z,954.25
2022-08-26T08:54:58.469Z,954.33
2022-08-26T08:58:02.001Z,954.2
2022-08-26T09:00:59.397Z,954.22
2022-08-26T09:03:59.422Z,954.3
2022-08-26T09:09:58.608Z,954.2
2022-08-26T09:12:58.810Z,954.14
2022-08-26T09:15:58.589Z,954.11
2022-08-26T09:18:58.803Z,954.18
2022-08-26T09:21:58.471Z,954.06
2022-08-26T09:24:58.438Z,954.01
2022-08-26T09:27:58.443Z,954.02
2022-08-26T09:30:59.036Z,953.96
2022-08-26T09:33:58.928Z,953.89
2022-08-26T09:36:59.252Z,953.97
2022-08-26T09:39:59.029Z,953.96
2022-08-26T09:42:59.833Z,954.02
2022-08-26T09:45:59.864Z,954.03
2022-08-26T09:48:59.341Z,953.99
2022-08-26T09:51:58.727Z,953.94
2022-08-26T09:54:58.535Z,953.87
2022-08-26T09:58:03.611Z,953.86
2022-08-26T10:00:59.597Z,953.75
2022-08-26T10:03:59.678Z,953.8
2022-08-26T10:06:58.549Z,953.83
2022-08-26T10:09:58.536Z,953.63
2022-08-26T10:12:58.401Z,953.68
2022-08-26T10:15:59.543Z,953.54
2022-08-26T10:19:00.199Z,953.51
2022-08-26T10:21:59.149Z,953.41
2022-08-26T10:24:58.584Z,953.45
2022-08-26T10:27:58.513Z,953.48
2022-08-26T10:30:59.367Z,953.49
2022-08-26T10:34:00.441Z,953.58
2022-08-26T10:37:13.744Z,953.46
2022-08-26T10:39:59.417Z,953.4
2022-08-26T10:42:59.141Z,953.4
2022-08-26T10:45:59.173Z,953.46
2022-08-26T10:49:00.086Z,953.47
2022-08-26T10:51:59.329Z,953.45
2022-08-26T10:54:58.279Z,953.3
2022-08-26T10:57:58.935Z,953.39
2022-08-26T11:00:59.325Z,953.41
2022-08-26T11:04:25.673Z,953.45
2022-08-26T11:06:59.774Z,953.49
2022-08-26T11:09:59.224Z,953.43
2022-08-26T11:12:58.805Z,953.39
2022-08-26T11:16:01.489Z,953.36
2022-08-26T11:18:58.575Z,953.42
2022-08-26T11:21:59.205Z,953.37
2022-08-26T11:24:59.464Z,953.23
2022-08-26T11:27:58.869Z,953.23
2022-08-26T11:30:58.863Z,953.07
2022-08-26T11:33:59.601Z,953.11
2022-08-26T11:36:59.366Z,953.07
2022-08-26T11:39:59.490Z,953.07
2022-08-26T11:42:59.610Z,952.95
2022-08-26T11:45:58.509Z,952.91
2022-08-26T11:48:58.275Z,952.86
2022-08-26T11:51:58.715Z,952.96
2022-08-26T11:54:58.499Z,952.9
2022-08-26T11:57:59.642Z,953.02
2022-08-26T12:00:59.629Z,952.95
2022-08-26T12:03:58.986Z,953.04
2022-08-26T12:06:59.224Z,953.05
2022-08-26T12:09:58.854Z,952.99
2022-08-26T12:12:58.867Z,953.01
2022-08-26T12:15:58.830Z,952.93
2022-08-26T12:18:59.222Z,952.89
2022-08-26T12:21:58.773Z,952.87
2022-08-26T12:24:58.711Z,952.84
2022-08-26T12:27:59.183Z,952.83
2022-08-26T12:30:59.630Z,952.89
2022-08-26T12:33:59.729Z,952.91
2022-08-26T12:39:59.667Z,953.21
2022-08-26T12:42:59.476Z,953.41
2022-08-26T12:45:59.422Z,953.44
2022-08-26T12:48:59.385Z,953.47
2022-08-26T12:51:58.507Z,953.49
2022-08-26T12:54:59.145Z,953.47
2022-08-26T12:57:58.573Z,953.46
2022-08-26T13:00:59.482Z,953.37
2022-08-26T13:03:59.152Z,953.27
2022-08-26T13:06:58.269Z,953.27
2022-08-26T13:09:59.582Z,953.3
2022-08-26T13:12:58.993Z,953.24
2022-08-26T13:15:59.502Z,953.01
2022-08-26T13:18:59.499Z,952.96
2022-08-26T13:21:59.248Z,952.98
2022-08-26T13:24:59.630Z,952.93
2022-08-26T13:27:59.248Z,952.94
2022-08-26T13:30:58.869Z,952.9
2022-08-26T13:33:58.597Z,952.84
2022-08-26T13:36:58.612Z,952.74
2022-08-26T13:39:59.317Z,952.78
2022-08-26T13:42:58.960Z,952.66
2022-08-26T13:45:59.220Z,952.7
2022-08-26T13:48:58.557Z,952.68
2022-08-26T13:51:58.742Z,952.76
2022-08-26T13:54:58.562Z,952.73
2022-08-26T13:57:59.359Z,952.76
2022-08-26T14:00:59.775Z,952.76
2022-08-26T14:03:59.330Z,952.76
2022-08-26T14:06:59.840Z,952.81
2022-08-26T14:09:59.292Z,952.78
2022-08-26T14:12:59.052Z,952.8
2022-08-26T14:15:59.246Z,952.64
2022-08-26T14:18:59.128Z,952.67
2022-08-26T14:21:59.029Z,952.61
2022-08-26T14:24:59.085Z,952.58
2022-08-26T14:27:59.063Z,952.68
2022-08-26T14:30:59.037Z,952.58
2022-08-26T14:33:59.163Z,952.61
2022-08-26T14:36:59.180Z,952.49
2022-08-26T14:40:00.150Z,952.51
2022-08-26T14:42:59.494Z,952.4
2022-08-26T14:45:59.783Z,952.38
2022-08-26T14:49:01.732Z,952.29
2022-08-26T14:51:58.648Z,952.35
2022-08-26T14:54:58.649Z,952.29
2022-08-26T14:57:59.725Z,952.27
2022-08-26T15:00:59.149Z,952.22
2022-08-26T15:03:58.593Z,952.22
2022-08-26T15:06:59.497Z,952.2
2022-08-26T15:09:59.955Z,952.21
2022-08-26T15:12:58.633Z,952.23
2022-08-26T15:15:59.442Z,952.1
2022-08-26T15:18:59.249Z,952.11
2022-08-26T15:21:59.229Z,952.14
2022-08-26T15:24:59.191Z,952.22
2022-08-26T15:27:59.409Z,952.26
2022-08-26T15:30:59.346Z,952.19
2022-08-26T15:33:58.974Z,952.2
2022-08-26T15:36:58.780Z,952.08
2022-08-26T15:39:59.467Z,952.23
2022-08-26T15:43:17.805Z,952.2
2022-08-26T15:46:00.442Z,952.26
2022-08-26T15:48:59.194Z,952.3
2022-08-26T15:51:58.900Z,952.24
2022-08-26T15:54:58.948Z,952.2
2022-08-26T15:57:59.215Z,952.24
2022-08-26T16:00:59.679Z,952.23
2022-08-26T16:03:59.315Z,952.23
2022-08-26T16:06:59.689Z,952.21
2022-08-26T16:09:59.045Z,952.29
2022-08-26T16:12:59.012Z,952.33
2022-08-26T16:15:59.012Z,952.31
2022-08-26T16:19:00.610Z,952.4
2022-08-26T16:21:59.048Z,952.34
2022-08-26T16:24:58.935Z,952.37
2022-08-26T16:27:58.924Z,952.36
2022-08-26T16:30:58.470Z,952.42
2022-08-26T16:33:58.713Z,952.39
2022-08-26T16:36:58.897Z,952.56
2022-08-26T16:39:59.504Z,952.85
2022-08-26T16:42:59.244Z,952.8
2022-08-26T16:45:59.124Z,952.8
2022-08-26T16:48:59.180Z,952.78
2022-08-26T16:51:58.993Z,952.74
2022-08-26T16:54:58.487Z,952.85
2022-08-26T16:57:58.963Z,952.88
2022-08-26T17:01:00.835Z,952.81
2022-08-26T17:03:59.440Z,952.74
2022-08-26T17:06:59.031Z,952.73
2022-08-26T17:09:59.059Z,952.8
2022-08-26T17:12:59.264Z,952.71
2022-08-26T17:16:00.066Z,952.65
2022-08-26T17:18:58.880Z,952.64
2022-08-26T17:21:58.849Z,952.67
2022-08-26T17:24:58.974Z,952.68
2022-08-26T17:27:59.301Z,952.64
2022-08-26T17:30:59.010Z,952.57
2022-08-26T17:33:59.436Z,952.62
2022-08-26T17:36:59.116Z,952.67
2022-08-26T17:39:59.325Z,952.63
2022-08-26T17:42:58.965Z,952.76
2022-08-26T17:45:58.779Z,952.68
2022-08-26T17:48:58.743Z,952.79
2022-08-26T17:51:58.774Z,952.82
2022-08-26T17:54:59.120Z,952.71
2022-08-26T17:57:58.990Z,952.73
2022-08-26T18:01:26.148Z,952.55
2022-08-26T18:04:00.601Z,952.52
2022-08-26T18:06:58.944Z,952.44
2022-08-26T18:09:58.993Z,952.32
2022-08-26T18:12:59.114Z,952.24
2022-08-26T18:15:59.500Z,952.27
2022-08-26T18:18:58.835Z,952.39
2022-08-26T18:21:58.868Z,952.53
2022-08-26T18:24:59.211Z,952.56
2022-08-26T18:27:59.191Z,952.7
2022-08-26T18:30:59.926Z,953.11
2022-08-26T18:33:58.930Z,953.23
2022-08-26T18:36:59.534Z,953.36
2022-08-26T18:39:59.869Z,953.49
2022-08-26T18:42:59.450Z,953.46
2022-08-26T18:45:59.573Z,953.55
2022-08-26T18:48:59.343Z,953.75
2022-08-26T18:51:58.679Z,953.81
2022-08-26T18:54:58.570Z,953.87
2022-08-26T18:57:58.369Z,953.82
2022-08-26T19:00:59.509Z,953.75
2022-08-26T19:03:58.280Z,953.69
2022-08-26T19:06:59.532Z,953.69
2022-08-26T19:09:59.250Z,953.78
2022-08-26T19:13:00.705Z,953.65
2022-08-26T19:15:59.082Z,953.85
2022-08-26T19:18:58.650Z,953.86
2022-08-26T19:21:59.019Z,953.84
2022-08-26T19:24:58.904Z,953.83
2022-08-26T19:27:59.312Z,953.77
2022-08-26T19:30:58.901Z,953.89
2022-08-26T19:33:58.978Z,953.9
2022-08-26T19:36:58.979Z,954.03
2022-08-26T19:39:59.335Z,954.07
2022-08-26T19:42:58.664Z,954.1
2022-08-26T19:45:59.556Z,954.12
2022-08-26T19:48:59.280Z,954.2
2022-08-26T19:51:59.026Z,954.23
2022-08-26T19:54:58.924Z,954.15
2022-08-26T19:57:59.098Z,954.08
2022-08-26T20:00:58.816Z,954.08
2022-08-26T20:03:59.103Z,954.11
2022-08-26T20:07:00.665Z,954.12
2022-08-26T20:09:59.310Z,954.15
2022-08-26T20:12:58.729Z,954.08
2022-08-26T20:15:59.168Z,954.24
2022-08-26T20:18:58.585Z,954.13
2022-08-26T20:22:01.269Z,954.09
2022-08-26T20:24:59.161Z,954.11
2022-08-26T20:27:59.374Z,954.07
2022-08-26T20:30:59.949Z,954.12
2022-08-26T20:33:59.062Z,954.13
2022-08-26T20:36:59.598Z,954.13
2022-08-26T20:39:59.404Z,954.0
2022-08-26T20:42:58.952Z,954.02
2022-08-26T20:45:58.963Z,954.03
2022-08-26T20:48:59.471Z,953.91
2022-08-26T20:51:59.625Z,953.96
2022-08-26T20:54:58.421Z,953.83
2022-08-26T20:57:59.580Z,953.81
2022-08-26T21:01:01.967Z,953.78
2022-08-26T21:03:59.608Z,953.86
2022-08-26T21:06:59.114Z,953.77
2022-08-26T21:09:59.523Z,953.84
2022-08-26T21:12:59.189Z,953.95
2022-08-26T21:15:58.466Z,953.99
2022-08-26T21:19:00.327Z,953.96
2022-08-26T21:21:58.901Z,954.02
2022-08-26T21:24:58.984Z,954.02
2022-08-26T21:27:59.313Z,954.03
2022-08-26T21:30:59.254Z,954.09
2022-08-26T21:33:59.275Z,954.14
2022-08-26T21:36:58.639Z,954.15
2022-08-26T21:39:59.821Z,954.16
2022-08-26T21:42:58.929Z,954.08
2022-08-26T21:45:59.482Z,954.15
2022-08-26T21:48:59.632Z,954.15
2022-08-26T21:51:58.939Z,954.21
2022-08-26T21:54:59.096Z,954.27
2022-08-26T21:57:58.846Z,954.12
2022-08-26T22:00:59.908Z,954.25
2022-08-26T22:03:58.639Z,954.27
2022-08-26T22:06:58.588Z,954.27
2022-08-26T22:09:59.751Z,954.2
2022-08-26T22:12:58.809Z,954.24
2022-08-26T22:15:59.201Z,954.17
2022-08-26T22:18:58.931Z,954.1
2022-08-26T22:21:59.554Z,954.1
2022-08-26T22:24:58.689Z,953.98
2022-08-26T22:27:58.439Z,953.94
2022-08-26T22:30:59.005Z,953.95
2022-08-26T22:33:59.001Z,953.86
2022-08-26T22:36:59.234Z,953.94
2022-08-26T22:39:59.408Z,953.82
2022-08-26T22:42:58.831Z,953.79
2022-08-26T22:45:59.177Z,953.72
2022-08-26T22:48:58.871Z,953.76
2022-08-26T22:51:58.547Z,953.67
2022-08-26T22:54:58.114Z,953.7
2022-08-26T22:57:59.059Z,953.82
2022-08-26T23:00:59.325Z,953.89
2022-08-26T23:03:58.874Z,953.87
2022-08-26T23:06:58.785Z,953.85
2022-08-26T23:09:59.035Z,953.91
2022-08-26T23:12:59.207Z,953.92
2022-08-26T23:15:58.743Z,953.88
2022-08-26T23:18:58.900Z,953.89
2022-08-26T23:21:59.044Z,953.88
2022-08-26T23:24:58.587Z,953.97
2022-08-26T23:27:58.816Z,954.02
2022-08-26T23:30:59.463Z,953.91
2022-08-26T23:33:58.564Z,953.95
2022-08-26T23:36:59.266Z,953.91
2022-08-26T23:39:59.195Z,953.75
2022-08-26T23:42:59.426Z,953.79
2022-08-26T23:45:58.859Z,953.65
2022-08-26T23:48:58.360Z,953.69
2022-08-26T23:51:59.099Z,953.69
2022-08-26T23:54:59.193Z,953.69
2022-08-26T23:57:58.684Z,953.66
